createdAt,value
2022-10-25T00:01:59.678Z,11.30
2022-10-25T00:04:01.423Z,11.20
2022-10-25T00:06:02.986Z,11.20
2022-10-25T00:08:04.996Z,11.10
2022-10-25T00:10:07.186Z,11.10
2022-10-25T00:12:08.783Z,11.20
2022-10-25T00:14:10.439Z,11.10
2022-10-25T00:16:16.550Z,11.10
2022-10-25T00:18:18.130Z,11.10
2022-10-25T00:20:19.927Z,11.10
2022-10-25T00:22:21.490Z,11.10
2022-10-25T00:24:23.270Z,11.10
2022-10-25T00:26:24.883Z,11.10
2022-10-25T00:28:26.454Z,11.20
2022-10-25T00:30:28.024Z,11.10
2022-10-25T00:32:29.572Z,11.20
2022-10-25T00:34:31.150Z,11.10
2022-10-25T00:36:32.698Z,11.00
2022-10-25T00:38:34.585Z,11.10
2022-10-25T00:40:36.238Z,11.00
2022-10-25T00:42:37.785Z,11.10
2022-10-25T00:44:39.375Z,11.10
2022-10-25T00:46:41.022Z,11.20
2022-10-25T00:48:46.140Z,11.10
2022-10-25T00:50:49.482Z,11.00
2022-10-25T00:52:52.524Z,10.80
2022-10-25T00:54:54.500Z,10.80
2022-10-25T00:56:57.867Z,10.80
2022-10-25T00:59:01.747Z,10.90
2022-10-25T01:01:06.162Z,11.10
2022-10-25T01:03:07.823Z,10.90
2022-10-25T01:05:10.101Z,10.90
2022-10-25T01:07:11.736Z,10.80
2022-10-25T01:09:16.709Z,10.90
2022-10-25T01:11:18.606Z,11.00
2022-10-25T01:13:20.326Z,10.90
2022-10-25T01:15:23.737Z,10.90
2022-10-25T01:17:28.421Z,10.90
2022-10-25T01:21:47.063Z,10.80
2022-10-25T01:24:04.120Z,10.80
2022-10-25T01:26:20.744Z,10.80
2022-10-25T01:28:25.363Z,10.80
2022-10-25T01:30:34.307Z,10.90
2022-10-25T01:32:45.692Z,10.80
2022-10-25T01:34:56.021Z,10.80
2022-10-25T01:37:16.293Z,10.70
2022-10-25T01:39:25.109Z,10.70
2022-10-25T01:41:38.808Z,10.60
2022-10-25T01:43:45.309Z,10.70
2022-10-25T01:45:50.150Z,10.50
2022-10-25T01:48:04.115Z,10.50
2022-10-25T01:50:11.199Z,10.40
2022-10-25T01:52:14.046Z,10.50
2022-10-25T01:54:20.885Z,10.60
2022-10-25T01:56:43.725Z,10.50
2022-10-25T01:58:54.575Z,10.50
2022-10-25T02:01:05.913Z,10.40
2022-10-25T02:03:10.354Z,10.50
2022-10-25T02:05:35.170Z,10.60
2022-10-25T02:08:03.384Z,10.50
2022-10-25T02:10:08.100Z,10.40
2022-10-25T02:12:14.482Z,10.30
2022-10-25T02:14:16.063Z,10.30
2022-10-25T02:16:20.428Z,10.20
2022-10-25T02:18:24.175Z,10.30
2022-10-25T02:20:27.771Z,10.30
2022-10-25T02:22:30.042Z,10.30
2022-10-25T02:24:32.042Z,10.20
2022-10-25T02:26:34.264Z,10.30
2022-10-25T02:28:37.848Z,10.40
2022-10-25T02:30:40.505Z,10.40
2022-10-25T02:32:43.566Z,10.30
2022-10-25T02:34:47.900Z,10.30
2022-10-25T02:36:49.818Z,10.40
2022-10-25T02:38:52.997Z,10.50
2022-10-25T02:46:35.454Z,10.20
2022-10-25T02:48:37.176Z,10.20
2022-10-25T02:50:38.734Z,10.20
2022-10-25T02:52:40.303Z,10.30
2022-10-25T02:54:41.840Z,10.20
2022-10-25T02:56:43.403Z,10.30
2022-10-25T02:58:45.548Z,10.30
2022-10-25T03:00:48.401Z,10.20
2022-10-25T03:02:50.182Z,10.10
2022-10-25T03:04:51.831Z,10.10
2022-10-25T03:06:53.510Z,10.00
2022-10-25T03:08:55.102Z,9.90
2022-10-25T03:10:56.684Z,9.90
2022-10-25T03:12:58.325Z,9.90
2022-10-25T03:15:00.005Z,10.00
2022-10-25T03:17:01.551Z,10.00
2022-10-25T03:19:03.133Z,10.10
2022-10-25T03:21:05.162Z,10.10
2022-10-25T03:23:06.854Z,10.10
2022-10-25T03:27:15.110Z,9.90
2022-10-25T03:29:16.705Z,10.00
2022-10-25T03:31:18.374Z,10.10
2022-10-25T03:33:19.964Z,10.20
2022-10-25T03:35:21.853Z,10.20
2022-10-25T03:37:23.494Z,10.20
2022-10-25T03:39:25.062Z,10.30
2022-10-25T03:41:26.745Z,10.00
2022-10-25T03:43:28.306Z,10.10
2022-10-25T03:45:29.885Z,10.10
2022-10-25T03:47:31.461Z,10.10
2022-10-25T03:49:33.032Z,10.10
2022-10-25T03:51:34.627Z,10.10
2022-10-25T03:53:36.245Z,10.10
2022-10-25T03:55:37.804Z,10.10
2022-10-25T03:57:39.436Z,10.00
2022-10-25T03:59:40.977Z,9.90
2022-10-25T04:01:42.740Z,10.00
2022-10-25T04:03:45.207Z,9.90
2022-10-25T04:05:46.760Z,9.90
2022-10-25T04:07:48.811Z,9.80
2022-10-25T04:09:50.658Z,9.70
2022-10-25T04:11:52.479Z,9.70
2022-10-25T04:13:54.036Z,9.80
2022-10-25T04:15:55.596Z,9.80
2022-10-25T04:17:57.133Z,9.80
2022-10-25T04:19:58.830Z,9.60
2022-10-25T04:22:02.491Z,9.70
2022-10-25T04:24:04.590Z,9.70
2022-10-25T04:26:06.337Z,9.60
2022-10-25T04:28:07.954Z,9.60
2022-10-25T04:30:09.699Z,9.60
2022-10-25T04:32:11.642Z,9.50
2022-10-25T04:34:13.253Z,9.40
2022-10-25T04:36:14.803Z,9.40
2022-10-25T04:38:16.437Z,9.50
2022-10-25T04:40:22.498Z,9.50
2022-10-25T04:42:26.388Z,9.40
2022-10-25T04:44:27.943Z,9.30
2022-10-25T04:46:29.487Z,9.40
2022-10-25T04:48:31.056Z,9.40
2022-10-25T04:50:32.645Z,9.40
2022-10-25T04:52:34.238Z,9.30
2022-10-25T04:54:35.810Z,9.30
2022-10-25T04:56:37.368Z,9.40
2022-10-25T04:58:38.993Z,9.40
2022-10-25T05:00:40.593Z,9.40
2022-10-25T05:02:42.293Z,9.30
2022-10-25T05:04:43.906Z,9.20
2022-10-25T05:06:45.462Z,9.20
2022-10-25T05:08:47.852Z,9.20
2022-10-25T05:10:55.435Z,9.30
2022-10-25T05:12:57.115Z,9.30
2022-10-25T05:14:58.686Z,9.20
2022-10-25T05:17:00.489Z,9.20
2022-10-25T05:19:02.235Z,9.20
2022-10-25T05:21:05.125Z,9.20
2022-10-25T05:23:06.686Z,9.10
2022-10-25T05:25:08.393Z,9.10
2022-10-25T05:27:10.009Z,9.00
2022-10-25T05:29:12.391Z,9.10
2022-10-25T05:31:21.337Z,9.10
2022-10-25T05:33:23.157Z,9.10
2022-10-25T05:35:24.724Z,9.10
2022-10-25T05:37:26.292Z,9.20
2022-10-25T05:39:27.854Z,9.20
2022-10-25T05:41:32.029Z,9.20
2022-10-25T05:43:36.443Z,9.20
2022-10-25T05:45:37.992Z,9.20
2022-10-25T05:47:39.562Z,9.10
2022-10-25T05:49:42.302Z,9.10
2022-10-25T05:51:43.962Z,9.10
2022-10-25T05:53:46.497Z,9.10
2022-10-25T05:55:48.129Z,9.00
2022-10-25T05:57:52.818Z,9.00
2022-10-25T05:59:54.373Z,9.00
2022-10-25T06:01:56.109Z,9.00
2022-10-25T06:03:57.954Z,9.00
2022-10-25T06:06:00.987Z,9.00
2022-10-25T06:08:02.580Z,9.10
2022-10-25T06:10:09.576Z,9.10
2022-10-25T06:12:12.139Z,9.20
2022-10-25T06:14:13.731Z,9.10
2022-10-25T06:16:16.885Z,9.10
2022-10-25T06:18:18.452Z,9.20
2022-10-25T06:20:20.037Z,9.10
2022-10-25T06:22:21.614Z,9.20
2022-10-25T06:24:23.204Z,9.30
2022-10-25T06:26:26.353Z,9.20
2022-10-25T06:28:28.876Z,9.20
2022-10-25T06:32:38.123Z,9.20
2022-10-25T06:34:39.666Z,9.30
2022-10-25T06:36:41.268Z,9.30
2022-10-25T06:38:43.556Z,9.30
2022-10-25T06:40:45.241Z,9.30
2022-10-25T06:42:47.155Z,9.20
2022-10-25T06:44:48.966Z,9.20
2022-10-25T06:47:15.761Z,9.20
2022-10-25T06:49:12.206Z,9.10
2022-10-25T06:51:13.753Z,9.10
2022-10-25T06:53:15.423Z,9.20
2022-10-25T06:55:17.040Z,9.20
2022-10-25T06:57:18.607Z,9.10
2022-10-25T06:59:20.482Z,9.10
2022-10-25T07:01:23.221Z,9.20
2022-10-25T07:03:31.112Z,9.20
2022-10-25T07:05:32.673Z,9.20
2022-10-25T07:07:34.240Z,9.30
2022-10-25T07:09:35.835Z,9.30
2022-10-25T07:11:38.186Z,9.40
2022-10-25T07:13:39.712Z,9.40
2022-10-25T07:15:42.226Z,9.40
2022-10-25T07:17:43.992Z,9.50
2022-10-25T07:19:45.821Z,9.50
2022-10-25T07:21:47.542Z,9.60
2022-10-25T07:23:50.365Z,9.60
2022-10-25T07:25:51.931Z,9.60
2022-10-25T07:27:53.487Z,9.70
2022-10-25T07:29:55.048Z,9.70
2022-10-25T07:31:56.620Z,9.80
2022-10-25T07:33:58.946Z,9.80
2022-10-25T07:36:06.531Z,9.80
2022-10-25T07:38:12.218Z,9.90
2022-10-25T07:40:13.866Z,10.00
2022-10-25T07:42:15.436Z,10.10
2022-10-25T07:44:21.333Z,10.10
2022-10-25T07:46:25.571Z,10.10
2022-10-25T07:48:27.400Z,10.30
2022-10-25T07:50:28.949Z,10.30
2022-10-25T07:52:30.545Z,10.40
2022-10-25T07:54:32.133Z,10.50
2022-10-25T07:56:33.703Z,10.50
2022-10-25T07:58:35.330Z,10.50
2022-10-25T08:00:37.018Z,10.60
2022-10-25T08:02:38.697Z,10.60
2022-10-25T08:04:40.270Z,10.70
2022-10-25T08:06:41.882Z,10.80
2022-10-25T08:08:43.469Z,10.90
2022-10-25T08:10:45.101Z,10.90
2022-10-25T08:12:49.697Z,11.00
2022-10-25T08:14:51.239Z,11.10
2022-10-25T08:16:52.808Z,11.30
2022-10-25T08:18:54.686Z,11.30
2022-10-25T08:21:02.259Z,11.30
2022-10-25T08:23:04.631Z,11.40
2022-10-25T08:25:06.547Z,11.50
2022-10-25T08:27:08.241Z,11.50
2022-10-25T08:29:09.836Z,11.60
2022-10-25T08:31:11.453Z,11.70
2022-10-25T08:33:13.040Z,11.70
2022-10-25T08:35:15.417Z,11.80
2022-10-25T08:37:16.994Z,11.90
2022-10-25T08:39:18.583Z,12.00
2022-10-25T08:41:32.590Z,12.00
2022-10-25T08:43:43.353Z,12.10
2022-10-25T08:45:54.271Z,12.20
2022-10-25T08:47:56.558Z,12.30
2022-10-25T08:50:19.465Z,12.40
2022-10-25T08:52:27.889Z,12.50
2022-10-25T08:54:37.604Z,12.60
2022-10-25T08:56:46.613Z,12.50
2022-10-25T08:59:00.726Z,12.60
2022-10-25T09:01:04.961Z,12.80
2022-10-25T09:03:15.266Z,12.90
2022-10-25T09:05:27.834Z,13.00
2022-10-25T09:07:48.429Z,13.10
2022-10-25T09:09:58.185Z,13.20
2022-10-25T09:11:59.733Z,13.20
2022-10-25T09:14:13.767Z,13.20
2022-10-25T09:16:16.688Z,13.50
2022-10-25T09:18:19.347Z,13.60
2022-10-25T09:20:21.263Z,13.70
2022-10-25T09:22:27.631Z,13.80
2022-10-25T09:24:33.265Z,13.90
2022-10-25T09:26:37.618Z,14.00
2022-10-25T09:28:48.289Z,14.10
2022-10-25T09:30:50.803Z,14.10
2022-10-25T09:32:54.666Z,14.30
2022-10-25T09:34:56.455Z,14.40
2022-10-25T09:37:03.102Z,14.60
2022-10-25T09:39:10.277Z,14.70
2022-10-25T09:41:24.735Z,14.80
2022-10-25T09:43:28.773Z,14.80
2022-10-25T09:45:49.281Z,15.00
2022-10-25T09:47:53.855Z,15.20
2022-10-25T09:50:01.571Z,15.20
2022-10-25T09:52:03.110Z,15.30
2022-10-25T09:54:13.588Z,15.30
2022-10-25T09:56:17.215Z,15.50
2022-10-25T09:58:22.773Z,15.40
2022-10-25T10:00:24.506Z,15.50
2022-10-25T10:02:27.127Z,15.70
2022-10-25T10:04:36.303Z,15.80
2022-10-25T10:06:38.969Z,16.00
2022-10-25T10:08:43.650Z,16.00
2022-10-25T10:10:46.226Z,16.10
2022-10-25T10:12:55.257Z,16.20
2022-10-25T10:15:04.784Z,16.40
2022-10-25T10:17:12.030Z,16.40
2022-10-25T10:19:16.254Z,16.40
2022-10-25T10:21:19.343Z,16.50
2022-10-25T10:23:20.992Z,16.50
2022-10-25T10:25:25.786Z,16.70
2022-10-25T10:27:28.127Z,16.80
2022-10-25T10:29:30.931Z,16.70
2022-10-25T10:31:39.519Z,16.80
2022-10-25T10:33:46.555Z,16.90
2022-10-25T10:35:48.362Z,17.00
2022-10-25T10:37:50.000Z,17.10
2022-10-25T10:39:56.042Z,17.10
2022-10-25T10:42:04.921Z,17.10
2022-10-25T10:44:07.973Z,17.30
2022-10-25T10:46:13.428Z,17.50
2022-10-25T10:48:19.098Z,17.70
2022-10-25T10:50:20.743Z,18.00
2022-10-25T10:52:30.619Z,18.00
2022-10-25T10:54:38.660Z,18.00
2022-10-25T10:56:40.392Z,18.20
2022-10-25T10:58:53.121Z,18.40
2022-10-25T11:01:02.753Z,18.60
2022-10-25T11:03:04.550Z,18.80
2022-10-25T11:05:24.887Z,19.10
2022-10-25T11:07:28.573Z,19.20
2022-10-25T11:09:30.268Z,19.10
2022-10-25T11:11:31.909Z,19.20
2022-10-25T11:13:33.496Z,19.20
2022-10-25T11:15:40.933Z,19.40
2022-10-25T11:17:46.139Z,19.30
2022-10-25T11:20:14.019Z,19.70
2022-10-25T11:22:15.570Z,19.80
2022-10-25T11:24:23.178Z,19.90
2022-10-25T11:26:30.050Z,19.90
2022-10-25T11:28:51.401Z,20.10
2022-10-25T11:31:00.888Z,20.20
2022-10-25T11:33:08.579Z,20.10
2022-10-25T11:35:10.124Z,20.00
2022-10-25T11:37:24.378Z,19.90
2022-10-25T11:39:25.925Z,20.10
2022-10-25T11:41:27.517Z,20.70
2022-10-25T11:43:40.978Z,20.70
2022-10-25T11:45:42.546Z,20.70
2022-10-25T11:47:52.065Z,21.20
2022-10-25T11:49:56.951Z,21.30
2022-10-25T11:52:10.933Z,20.40
2022-10-25T11:54:15.418Z,20.70
2022-10-25T11:56:25.719Z,21.20
2022-10-25T11:58:52.594Z,20.90
2022-10-25T12:00:54.099Z,20.70
2022-10-25T12:03:01.725Z,20.90
2022-10-25T12:05:15.401Z,21.20
2022-10-25T12:07:43.338Z,21.30
2022-10-25T12:09:50.978Z,21.30
2022-10-25T12:11:55.647Z,21.00
2022-10-25T12:14:04.096Z,21.40
2022-10-25T12:16:09.953Z,21.30
2022-10-25T12:18:14.367Z,21.90
2022-10-25T12:20:19.956Z,21.50
2022-10-25T12:22:24.211Z,21.40
2022-10-25T12:24:29.753Z,21.40
2022-10-25T12:26:34.636Z,22.30
2022-10-25T12:28:44.938Z,24.40
2022-10-25T12:30:47.532Z,25.70
2022-10-25T12:33:02.795Z,26.30
2022-10-25T12:35:17.552Z,26.40
2022-10-25T12:37:19.410Z,25.90
2022-10-25T12:39:26.069Z,24.60
2022-10-25T12:41:29.430Z,25.40
2022-10-25T12:43:43.240Z,26.10
2022-10-25T12:45:50.529Z,25.50
2022-10-25T12:48:08.423Z,24.30
2022-10-25T12:50:27.608Z,24.10
2022-10-25T12:52:31.862Z,24.30
2022-10-25T12:54:33.437Z,24.80
2022-10-25T12:56:43.949Z,24.40
2022-10-25T12:58:45.552Z,24.10
2022-10-25T13:01:00.477Z,24.10
2022-10-25T13:03:02.098Z,23.60
2022-10-25T13:05:06.376Z,23.10
2022-10-25T13:07:08.828Z,22.50
2022-10-25T13:09:14.606Z,22.80
2022-10-25T13:11:16.311Z,22.30
2022-10-25T13:13:25.004Z,23.70
2022-10-25T13:15:35.476Z,23.70
2022-10-25T13:17:40.150Z,23.50
2022-10-25T13:19:55.654Z,23.90
2022-10-25T13:21:57.577Z,23.70
2022-10-25T13:24:00.286Z,23.60
2022-10-25T13:26:01.810Z,22.30
2022-10-25T13:28:15.555Z,21.60
2022-10-25T13:30:25.580Z,22.20
2022-10-25T13:32:28.206Z,22.20
2022-10-25T13:34:30.954Z,22.40
2022-10-25T13:36:48.071Z,23.00
2022-10-25T13:39:02.425Z,22.90
2022-10-25T13:41:07.966Z,23.10
2022-10-25T13:43:21.762Z,23.20
2022-10-25T13:45:33.369Z,23.00
2022-10-25T13:47:46.003Z,22.70
2022-10-25T13:49:48.009Z,22.40
2022-10-25T13:51:49.874Z,21.40
2022-10-25T13:53:52.430Z,22.10
2022-10-25T13:55:56.884Z,22.20
2022-10-25T13:57:58.674Z,22.70
2022-10-25T14:00:01.294Z,23.00
2022-10-25T14:02:16.685Z,22.70
2022-10-25T14:04:20.167Z,22.70
2022-10-25T14:06:23.836Z,22.10
2022-10-25T14:08:25.403Z,22.00
2022-10-25T14:10:28.038Z,21.80
2022-10-25T14:12:30.800Z,21.80
2022-10-25T14:14:58.657Z,22.40
2022-10-25T14:17:00.235Z,22.60
2022-10-25T14:19:20.149Z,22.30
2022-10-25T14:21:23.819Z,22.20
2022-10-25T14:23:27.348Z,22.20
2022-10-25T14:25:42.534Z,21.50
2022-10-25T14:27:44.342Z,22.10
2022-10-25T14:29:45.898Z,22.30
2022-10-25T14:31:47.794Z,21.90
2022-10-25T14:33:51.411Z,22.30
2022-10-25T14:35:57.138Z,22.10
2022-10-25T14:37:58.913Z,22.70
2022-10-25T14:40:00.595Z,21.90
2022-10-25T14:42:03.050Z,21.10
2022-10-25T14:44:19.563Z,21.20
2022-10-25T14:46:24.839Z,21.90
2022-10-25T14:48:26.937Z,21.50
2022-10-25T14:50:28.518Z,20.60
2022-10-25T14:52:30.724Z,20.90
2022-10-25T14:54:33.502Z,20.40
2022-10-25T14:56:37.908Z,20.50
2022-10-25T14:58:43.139Z,20.70
2022-10-25T15:00:59.012Z,21.00
2022-10-25T15:03:02.165Z,21.00
2022-10-25T15:05:04.648Z,21.10
2022-10-25T15:07:07.376Z,21.10
2022-10-25T15:09:41.722Z,20.50
2022-10-25T15:11:40.713Z,20.80
2022-10-25T15:13:43.593Z,20.90
2022-10-25T15:15:46.549Z,20.70
2022-10-25T15:17:51.694Z,20.70
2022-10-25T15:20:25.746Z,20.50
2022-10-25T15:22:41.470Z,20.60
2022-10-25T15:24:44.508Z,20.30
2022-10-25T15:26:57.518Z,20.30
2022-10-25T15:29:00.716Z,20.30
2022-10-25T15:31:03.668Z,20.10
2022-10-25T15:33:09.404Z,19.90
2022-10-25T15:35:22.152Z,19.70
2022-10-25T15:37:25.116Z,19.50
2022-10-25T15:39:27.665Z,19.20
2022-10-25T15:41:29.341Z,19.00
2022-10-25T15:43:30.902Z,18.80
2022-10-25T15:45:33.495Z,18.50
2022-10-25T15:47:37.337Z,18.30
2022-10-25T15:49:38.915Z,18.20
2022-10-25T15:51:41.782Z,18.10
2022-10-25T15:53:43.398Z,17.80
2022-10-25T15:55:45.455Z,17.60
2022-10-25T15:57:47.350Z,17.50
2022-10-25T15:59:48.960Z,17.40
2022-10-25T16:01:52.137Z,17.20
2022-10-25T16:03:53.822Z,17.10
2022-10-25T16:05:55.389Z,16.90
2022-10-25T16:07:57.023Z,16.80
2022-10-25T16:09:58.671Z,16.60
2022-10-25T16:12:00.264Z,16.50
2022-10-25T16:14:03.805Z,16.40
2022-10-25T16:16:21.852Z,16.30
2022-10-25T16:18:29.425Z,16.20
2022-10-25T16:20:31.700Z,16.00
2022-10-25T16:22:33.386Z,15.90
2022-10-25T16:24:34.969Z,15.90
2022-10-25T16:26:38.134Z,15.80
2022-10-25T16:28:40.830Z,15.70
2022-10-25T16:30:43.860Z,15.70
2022-10-25T16:32:46.222Z,15.60
2022-10-25T16:34:48.061Z,15.50
2022-10-25T16:36:50.411Z,15.50
2022-10-25T16:38:52.015Z,15.40
2022-10-25T16:40:53.709Z,15.30
2022-10-25T16:42:57.683Z,15.20
2022-10-25T16:44:59.805Z,15.20
2022-10-25T16:47:01.370Z,15.20
2022-10-25T16:49:04.718Z,15.10
2022-10-25T16:51:06.315Z,15.20
2022-10-25T16:53:08.641Z,15.10
2022-10-25T16:55:10.745Z,15.10
2022-10-25T16:57:16.285Z,14.90
2022-10-25T16:59:17.809Z,14.90
2022-10-25T17:01:26.647Z,14.80
2022-10-25T17:03:28.320Z,14.70
2022-10-25T17:05:32.518Z,14.70
2022-10-25T17:07:34.196Z,14.60
2022-10-25T17:09:35.776Z,14.60
2022-10-25T17:11:37.424Z,14.60
2022-10-25T17:13:39.440Z,14.60
2022-10-25T17:15:41.552Z,14.50
2022-10-25T17:17:45.422Z,14.40
2022-10-25T17:19:47.323Z,14.50
2022-10-25T17:21:48.897Z,14.30
2022-10-25T17:23:50.528Z,14.30
2022-10-25T17:25:58.815Z,14.30
2022-10-25T17:28:00.431Z,14.20
2022-10-25T17:30:02.057Z,14.20
2022-10-25T17:32:03.679Z,14.20
2022-10-25T17:34:05.268Z,14.10
2022-10-25T17:36:07.751Z,14.10
2022-10-25T17:38:10.260Z,14.00
2022-10-25T17:40:13.536Z,14.00
2022-10-25T17:42:15.685Z,14.00
2022-10-25T17:44:17.234Z,13.90
2022-10-25T17:46:19.906Z,13.90
2022-10-25T17:48:21.505Z,13.90
2022-10-25T17:50:23.230Z,13.80
2022-10-25T17:52:24.803Z,13.80
2022-10-25T17:54:26.430Z,13.80
2022-10-25T17:56:28.336Z,13.80
2022-10-25T17:58:30.014Z,13.70
2022-10-25T18:00:31.588Z,13.70
2022-10-25T18:02:33.341Z,13.60
2022-10-25T18:04:53.405Z,13.60
2022-10-25T18:06:56.565Z,13.60
2022-10-25T18:08:59.097Z,13.50
2022-10-25T18:11:07.150Z,13.50
2022-10-25T18:13:08.754Z,13.40
2022-10-25T18:15:10.539Z,13.40
2022-10-25T18:17:12.144Z,13.30
2022-10-25T18:19:14.522Z,13.30
2022-10-25T18:21:16.566Z,13.20
2022-10-25T18:23:18.215Z,13.20
2022-10-25T18:25:19.824Z,13.20
2022-10-25T18:27:21.410Z,13.20
2022-10-25T18:29:23.177Z,13.20
2022-10-25T18:31:26.975Z,13.20
2022-10-25T18:33:32.862Z,13.10
2022-10-25T18:35:34.535Z,13.10
2022-10-25T18:37:36.169Z,13.00
2022-10-25T18:39:37.783Z,13.00
2022-10-25T18:41:40.877Z,13.00
2022-10-25T18:43:42.888Z,13.10
2022-10-25T18:45:44.690Z,13.10
2022-10-25T18:47:49.640Z,13.10
2022-10-25T18:49:51.546Z,13.00
2022-10-25T18:51:53.160Z,13.00
2022-10-25T18:53:55.493Z,13.10
2022-10-25T18:55:57.282Z,13.10
2022-10-25T18:58:01.254Z,13.20
2022-10-25T19:00:04.062Z,13.00
2022-10-25T19:02:05.734Z,13.00
2022-10-25T19:04:07.493Z,13.00
2022-10-25T19:06:10.073Z,12.80
2022-10-25T19:08:14.480Z,12.70
2022-10-25T19:10:16.046Z,12.70
2022-10-25T19:12:17.658Z,12.70
2022-10-25T19:14:19.211Z,12.60
2022-10-25T19:16:21.304Z,12.70
2022-10-25T19:18:23.354Z,12.70
2022-10-25T19:20:25.327Z,12.80
2022-10-25T19:22:27.831Z,12.70
2022-10-25T19:24:29.541Z,12.70
2022-10-25T19:26:31.134Z,12.70
2022-10-25T19:28:33.412Z,12.80
2022-10-25T19:30:38.949Z,12.70
2022-10-25T19:32:41.480Z,12.50
2022-10-25T19:34:43.136Z,12.50
2022-10-25T19:36:44.784Z,12.50
2022-10-25T19:38:48.274Z,12.50
2022-10-25T19:40:49.896Z,12.50
2022-10-25T19:42:51.503Z,12.50
2022-10-25T19:44:53.927Z,12.50
2022-10-25T19:46:55.518Z,12.50
2022-10-25T19:49:00.126Z,12.50
2022-10-25T19:51:05.962Z,12.40
2022-10-25T19:53:07.516Z,12.50
2022-10-25T19:55:09.191Z,12.60
2022-10-25T19:57:10.797Z,12.60
2022-10-25T19:59:12.398Z,12.60
2022-10-25T20:01:18.151Z,12.70
2022-10-25T20:03:19.781Z,12.60
2022-10-25T20:05:22.398Z,12.60
2022-10-25T20:07:23.981Z,12.50
2022-10-25T20:09:25.571Z,12.50
2022-10-25T20:11:28.250Z,12.50
2022-10-25T20:13:33.301Z,12.40
2022-10-25T20:15:34.873Z,12.40
2022-10-25T20:17:36.432Z,12.40
2022-10-25T20:19:38.016Z,12.40
2022-10-25T20:21:39.579Z,12.40
2022-10-25T20:23:42.861Z,12.40
2022-10-25T20:25:44.553Z,12.30
2022-10-25T20:27:46.498Z,12.30
2022-10-25T20:29:48.244Z,12.20
2022-10-25T20:31:50.527Z,12.20
2022-10-25T20:33:52.803Z,12.20
2022-10-25T20:35:54.503Z,12.20
2022-10-25T20:37:56.134Z,12.20
2022-10-25T20:39:57.771Z,12.20
2022-10-25T20:41:59.330Z,12.10
2022-10-25T20:44:02.844Z,12.10
2022-10-25T20:46:04.575Z,12.10
2022-10-25T20:48:06.241Z,12.10
2022-10-25T20:50:08.067Z,12.00
2022-10-25T20:52:09.684Z,12.00
2022-10-25T20:54:11.294Z,12.10
2022-10-25T20:56:13.499Z,12.10
2022-10-25T20:58:15.925Z,12.10
2022-10-25T21:00:20.412Z,12.10
2022-10-25T21:02:22.423Z,12.10
2022-10-25T21:04:30.553Z,12.10
2022-10-25T21:06:43.646Z,12.20
2022-10-25T21:08:45.233Z,12.10
2022-10-25T21:10:51.571Z,12.20
2022-10-25T21:12:53.117Z,12.20
2022-10-25T21:14:54.723Z,12.10
2022-10-25T21:16:56.402Z,12.00
2022-10-25T21:19:01.786Z,12.00
2022-10-25T21:21:04.795Z,12.10
2022-10-25T21:23:06.477Z,12.00
2022-10-25T21:25:08.468Z,12.00
2022-10-25T21:27:10.491Z,12.00
2022-10-25T21:29:12.118Z,12.10
2022-10-25T21:31:14.609Z,12.20
2022-10-25T21:33:16.191Z,12.10
2022-10-25T21:35:18.176Z,12.00
2022-10-25T21:37:19.927Z,12.00
2022-10-25T21:39:23.907Z,11.90
2022-10-25T21:41:29.596Z,11.80
2022-10-25T21:43:31.172Z,11.90
2022-10-25T21:45:32.753Z,12.00
2022-10-25T21:47:36.137Z,12.00
2022-10-25T21:49:37.702Z,12.00
2022-10-25T21:51:39.303Z,12.00
2022-10-25T21:53:41.086Z,12.00
2022-10-25T21:55:42.734Z,12.00
2022-10-25T21:57:44.324Z,11.90
2022-10-25T21:59:45.884Z,12.00
2022-10-25T22:01:48.005Z,12.00
2022-10-25T22:03:49.739Z,12.00
2022-10-25T22:05:51.279Z,12.20
2022-10-25T22:07:52.866Z,12.10
2022-10-25T22:09:54.438Z,12.10
2022-10-25T22:11:56.157Z,12.20
2022-10-25T22:13:59.501Z,12.30
2022-10-25T22:16:05.737Z,12.20
2022-10-25T22:18:07.705Z,12.20
2022-10-25T22:20:09.514Z,12.30
2022-10-25T22:22:11.162Z,12.20
2022-10-25T22:24:13.082Z,12.10
2022-10-25T22:26:15.894Z,12.10
2022-10-25T22:28:17.534Z,12.10
2022-10-25T22:30:19.311Z,12.10
2022-10-25T22:32:20.980Z,11.90
2022-10-25T22:34:22.703Z,12.00
2022-10-25T22:36:25.952Z,12.20
2022-10-25T22:38:28.001Z,12.30
2022-10-25T22:40:29.828Z,12.40
2022-10-25T22:42:31.596Z,12.50
2022-10-25T22:44:33.185Z,12.50
2022-10-25T22:46:35.524Z,12.20
2022-10-25T22:48:37.897Z,12.10
2022-10-25T22:50:39.434Z,12.10
2022-10-25T22:52:41.064Z,12.10
2022-10-25T22:54:42.712Z,12.10
2022-10-25T22:56:44.275Z,12.10
2022-10-25T22:58:50.240Z,12.10
2022-10-25T23:03:11.810Z,12.30
2022-10-25T23:05:13.416Z,12.30
2022-10-25T23:07:14.936Z,12.30
2022-10-25T23:09:16.723Z,12.30
2022-10-25T23:11:19.674Z,12.40
2022-10-25T23:13:21.242Z,12.50
2022-10-25T23:15:22.851Z,12.40
2022-10-25T23:17:24.605Z,12.40
2022-10-25T23:19:26.146Z,12.40
2022-10-25T23:21:29.923Z,12.30
2022-10-25T23:23:35.388Z,12.40
2022-10-25T23:25:37.057Z,12.40
2022-10-25T23:27:38.703Z,12.40
2022-10-25T23:29:40.253Z,12.30
2022-10-25T23:31:41.788Z,12.40
2022-10-25T23:33:43.548Z,12.40
2022-10-25T23:35:45.114Z,12.40
2022-10-25T23:37:46.876Z,12.30
2022-10-25T23:39:48.667Z,12.40
2022-10-25T23:41:51.906Z,12.30
2022-10-25T23:43:53.494Z,12.30
2022-10-25T23:45:55.158Z,12.30
2022-10-25T23:47:56.714Z,12.30
2022-10-25T23:49:58.303Z,12.20
2022-10-25T23:51:59.908Z,12.30
2022-10-25T23:54:01.458Z,12.20
2022-10-25T23:56:03.691Z,12.20
2022-10-25T23:58:05.333Z,12.10
